TAF KMSP
AMD KMSP 280834Z 2809/2912 31013KT P6SM SKC FM290000 21005KT P6SM FEW250 FM290500 15004KT P6SM OVC050 FM290900 14006KT P6SM VCSH OVC040=
METAR KMSP
WC KMSP
WS KMSP
WV KMSP